This is the latest recevied weather packets stored in our database for station/object WB9ZLM. If no packets are shown the sender has not sent any weather packets the latest 10 day(s).
| Time | Temp. | Humidity | Pressure | Rain* | Wind** | Luminosity | Snow |
|---|---|---|---|---|---|---|---|
| 1777838460 | 19.44° C | 38% | 1011.1 hPa | 0 mm | - | - | - |
| 1777837621 | 18.89° C | 39% | 1011.4 hPa | 0 mm | - | - | - |
| 1777837560 | 18.89° C | 39% | 1011.4 hPa | 0 mm | - | - | - |
| 1777836721 | 19.44° C | 38% | 1011.5 hPa | 0 mm | - | - | - |
| 1777836660 | 19.44° C | 38% | 1011.5 hPa | 0 mm | - | - | - |
| 1777835821 | 19.44° C | 38% | 1011.7 hPa | 0 mm | - | - | - |
| 1777835760 | 19.44° C | 38% | 1011.7 hPa | 0 mm | - | - | - |
| 1777834922 | 18.89° C | 38% | 1011.5 hPa | 0 mm | - | - | - |
| 1777834860 | 18.89° C | 38% | 1011.5 hPa | 0 mm | - | - | - |
| 1777834022 | 17.78° C | 38% | 1011.9 hPa | 0 mm | - | - | - |
| 1777833960 | 17.78° C | 38% | 1011.9 hPa | 0 mm | - | - | - |
| 1777833121 | 17.78° C | 39% | 1012.2 hPa | 0 mm | - | - | - |
| 1777833060 | 17.78° C | 39% | 1012.2 hPa | 0 mm | - | - | - |
| 1777832222 | 17.22° C | 39% | 1012.5 hPa | 0 mm | - | - | - |
| 1777832160 | 17.22° C | 39% | 1012.5 hPa | 0 mm | - | - | - |
| 1777831321 | 16.67° C | 43% | 1012.6 hPa | 0 mm | - | - | - |
| 1777831260 | 16.67° C | 43% | 1012.6 hPa | 0 mm | - | - | - |
| 1777830422 | 15.56° C | 44% | 1012.9 hPa | 0 mm | - | - | - |
| 1777830360 | 15.56° C | 44% | 1012.9 hPa | 0 mm | - | - | - |
| 1777829522 | 14.44° C | 48% | 1013.6 hPa | 0 mm | - | - | - |
| 1777829460 | 14.44° C | 48% | 1013.6 hPa | 0 mm | - | - | - |
| 1777828622 | 13.89° C | 49% | 1014 hPa | 0 mm | - | - | - |
| 1777828560 | 13.89° C | 49% | 1014 hPa | 0 mm | - | - | - |
| 1777827722 | 13.33° C | 50% | 1014.7 hPa | 0 mm | - | - | - |
| 1777827660 | 13.33° C | 50% | 1014.7 hPa | 0 mm | - | - | - |
* Rain latest hour (hover to see other rain measurements)
** Current wind speed in m/s (hover to see current wind gust speed)